Sama, Spain
Current Conditions -  °F | °C
As of 11:30 PM on Monday 20 Oct 2014 (Local Time) from LEAS Reporting Station
Few Clouds Few Clouds  
Wind Chill: 64°   Ceiling: Unl
Heat Index: 64°   Visibility: 4mi
Dew Point: 61°   Wind: 3mph
Humidity: 88%   Direction: 270°W
Pressure: 30.18"   Gusts: NA
Location:  43.3°N, 5.68°W
Report Text: LEAS 202130Z 27003KT 230V310 7000 FEW035 18/16 Q1022 NOSIG
Loading
Personal Weather Stations






























Interactive Weather Map
Tropical Storm Tracking
New forecast layout! Learn more

10-Day Weather Forecast

Advertisements
Track Severe Weather on mobile